sensor_id;sensor_type;location;lat;lon;timestamp;temperature;humidity
1123;DHT22;548;48.778;9.252;2023-02-03T10:12:37;8.10;99.90
1123;DHT22;548;48.778;9.252;2023-02-03T10:15:20;9.10;99.90
1123;DHT22;548;48.778;9.252;2023-02-03T10:17:53;9.00;99.90
1123;DHT22;548;48.778;9.252;2023-02-03T10:20:23;9.00;99.90
1123;DHT22;548;48.778;9.252;2023-02-03T10:22:55;9.00;99.90
1123;DHT22;548;48.778;9.252;2023-02-03T10:25:30;9.00;99.90
1123;DHT22;548;48.778;9.252;2023-02-03T10:28:03;9.20;99.90
1123;DHT22;548;48.778;9.252;2023-02-03T10:30:32;9.40;99.90
1123;DHT22;548;48.778;9.252;2023-02-03T10:33:09;9.60;99.90
1123;DHT22;548;48.778;9.252;2023-02-03T10:35:40;9.50;99.90
1123;DHT22;548;48.778;9.252;2023-02-03T10:38:16;9.60;99.90
1123;DHT22;548;48.778;9.252;2023-02-03T10:40:46;9.90;99.90
1123;DHT22;548;48.778;9.252;2023-02-03T10:43:14;9.90;99.90
1123;DHT22;548;48.778;9.252;2023-02-03T10:45:59;10.00;99.90
1123;DHT22;548;48.778;9.252;2023-02-03T10:48:26;10.20;99.90
1123;DHT22;548;48.778;9.252;2023-02-03T10:50:53;10.30;99.90
1123;DHT22;548;48.778;9.252;2023-02-03T10:53:23;10.40;99.90
1123;DHT22;548;48.778;9.252;2023-02-03T10:56:00;10.60;99.90
1123;DHT22;548;48.778;9.252;2023-02-03T10:58:30;10.60;99.90
1123;DHT22;548;48.778;9.252;2023-02-03T11:01:04;10.70;99.90
1123;DHT22;548;48.778;9.252;2023-02-03T11:03:33;11.40;99.90
1123;DHT22;548;48.778;9.252;2023-02-03T11:06:05;12.10;99.90
1123;DHT22;548;48.778;9.252;2023-02-03T11:08:33;12.90;99.90
1123;DHT22;548;48.778;9.252;2023-02-03T11:11:05;12.70;99.90
1123;DHT22;548;48.778;9.252;2023-02-03T11:13:33;12.30;99.90
1123;DHT22;548;48.778;9.252;2023-02-03T11:16:02;12.30;99.90
1123;DHT22;548;48.778;9.252;2023-02-03T11:18:41;12.20;99.90
1123;DHT22;548;48.778;9.252;2023-02-03T11:21:12;12.10;99.90
1123;DHT22;548;48.778;9.252;2023-02-03T11:23:48;11.80;99.90
1123;DHT22;548;48.778;9.252;2023-02-03T11:26:19;11.70;99.90
1123;DHT22;548;48.778;9.252;2023-02-03T11:28:50;11.40;99.90
1123;DHT22;548;48.778;9.252;2023-02-03T11:31:21;11.00;99.90
1123;DHT22;548;48.778;9.252;2023-02-03T11:33:52;10.60;99.90
1123;DHT22;548;48.778;9.252;2023-02-03T11:36:20;10.30;99.90
1123;DHT22;548;48.778;9.252;2023-02-03T11:38:46;10.10;99.90
1123;DHT22;548;48.778;9.252;2023-02-03T11:41:18;10.00;99.90
1123;DHT22;548;48.778;9.252;2023-02-03T11:43:47;10.10;99.90
1123;DHT22;548;48.778;9.252;2023-02-03T11:46:14;10.20;99.90
1123;DHT22;548;48.778;9.252;2023-02-03T11:48:50;10.40;99.90
1123;DHT22;548;48.778;9.252;2023-02-03T11:51:30;10.40;99.90
1123;DHT22;548;48.778;9.252;2023-02-03T11:54:11;10.40;99.90
1123;DHT22;548;48.778;9.252;2023-02-03T11:56:55;10.40;99.90
1123;DHT22;548;48.778;9.252;2023-02-03T11:59:35;10.60;99.90
1123;DHT22;548;48.778;9.252;2023-02-03T12:02:39;10.50;99.90
1123;DHT22;548;48.778;9.252;2023-02-03T12:05:32;10.60;99.90
1123;DHT22;548;48.778;9.252;2023-02-03T12:08:12;10.60;99.90
1123;DHT22;548;48.778;9.252;2023-02-03T12:10:51;10.60;99.90
1123;DHT22;548;48.778;9.252;2023-02-03T12:13:35;10.60;99.90
1123;DHT22;548;48.778;9.252;2023-02-03T12:16:17;10.30;99.90
1123;DHT22;548;48.778;9.252;2023-02-03T12:18:57;10.00;99.90
1123;DHT22;548;48.778;9.252;2023-02-03T12:21:41;9.90;99.90
1123;DHT22;548;48.778;9.252;2023-02-03T12:24:19;9.70;99.90
1123;DHT22;548;48.778;9.252;2023-02-03T12:26:56;9.60;99.90
1123;DHT22;548;48.778;9.252;2023-02-03T12:29:29;9.40;99.90
1123;DHT22;548;48.778;9.252;2023-02-03T12:32:04;9.40;99.90
1123;DHT22;548;48.778;9.252;2023-02-03T12:34:33;9.40;99.90
1123;DHT22;548;48.778;9.252;2023-02-03T12:37:05;9.50;99.90
1123;DHT22;548;48.778;9.252;2023-02-03T12:39:37;9.60;99.90
1123;DHT22;548;48.778;9.252;2023-02-03T12:42:13;9.50;99.90
1123;DHT22;548;48.778;9.252;2023-02-03T12:44:46;9.50;99.90
1123;DHT22;548;48.778;9.252;2023-02-03T12:47:20;9.50;99.90
1123;DHT22;548;48.778;9.252;2023-02-03T12:49:51;9.70;99.90
1123;DHT22;548;48.778;9.252;2023-02-03T12:52:23;9.60;99.90
1123;DHT22;548;48.778;9.252;2023-02-03T12:54:58;9.80;99.90
1123;DHT22;548;48.778;9.252;2023-02-03T12:57:29;9.80;99.90
1123;DHT22;548;48.778;9.252;2023-02-03T13:00:10;9.80;99.90
1123;DHT22;548;48.778;9.252;2023-02-03T13:02:48;9.90;99.90
1123;DHT22;548;48.778;9.252;2023-02-03T13:05:21;10.00;99.90
1123;DHT22;548;48.778;9.252;2023-02-03T13:07:52;10.20;99.90
1123;DHT22;548;48.778;9.252;2023-02-03T13:10:25;10.10;99.90
1123;DHT22;548;48.778;9.252;2023-02-03T13:12:56;10.00;99.90
1123;DHT22;548;48.778;9.252;2023-02-03T13:15:26;10.10;99.90
1123;DHT22;548;48.778;9.252;2023-02-03T13:17:58;10.10;99.90
1123;DHT22;548;48.778;9.252;2023-02-03T13:20:28;10.10;99.90
1123;DHT22;548;48.778;9.252;2023-02-03T13:22:57;10.10;99.90
1123;DHT22;548;48.778;9.252;2023-02-03T13:25:29;10.10;99.90
1123;DHT22;548;48.778;9.252;2023-02-03T13:28:08;10.10;99.90
1123;DHT22;548;48.778;9.252;2023-02-03T13:30:57;10.10;99.90
1123;DHT22;548;48.778;9.252;2023-02-03T13:39:49;9.90;99.90
1123;DHT22;548;48.778;9.252;2023-02-03T13:42:21;9.90;99.90
1123;DHT22;548;48.778;9.252;2023-02-03T13:44:58;9.90;99.90
1123;DHT22;548;48.778;9.252;2023-02-03T13:47:28;9.80;99.90
1123;DHT22;548;48.778;9.252;2023-02-03T13:49:59;10.00;99.90
1123;DHT22;548;48.778;9.252;2023-02-03T13:52:32;10.10;99.90
1123;DHT22;548;48.778;9.252;2023-02-03T13:54:59;10.10;99.90
1123;DHT22;548;48.778;9.252;2023-02-03T13:57:31;10.10;99.90
1123;DHT22;548;48.778;9.252;2023-02-03T14:00:00;10.00;99.90
1123;DHT22;548;48.778;9.252;2023-02-03T14:02:51;10.10;99.90
1123;DHT22;548;48.778;9.252;2023-02-03T14:05:41;10.00;99.90
1123;DHT22;548;48.778;9.252;2023-02-03T14:11:39;10.00;99.90
1123;DHT22;548;48.778;9.252;2023-02-03T14:14:42;10.00;99.90
1123;DHT22;548;48.778;9.252;2023-02-03T14:20:50;9.90;99.90
1123;DHT22;548;48.778;9.252;2023-02-03T14:23:24;9.90;99.90
1123;DHT22;548;48.778;9.252;2023-02-03T14:25:54;9.90;99.90
1123;DHT22;548;48.778;9.252;2023-02-03T14:28:25;9.90;99.90
1123;DHT22;548;48.778;9.252;2023-02-03T14:31:05;10.00;99.90
1123;DHT22;548;48.778;9.252;2023-02-03T14:33:57;9.90;99.90
1123;DHT22;548;48.778;9.252;2023-02-03T14:36:31;9.90;99.90
1123;DHT22;548;48.778;9.252;2023-02-03T14:39:02;10.00;99.90
1123;DHT22;548;48.778;9.252;2023-02-03T14:41:40;10.00;99.90
1123;DHT22;548;48.778;9.252;2023-02-03T14:44:17;10.00;99.90
1123;DHT22;548;48.778;9.252;2023-02-03T14:47:00;10.00;99.90
1123;DHT22;548;48.778;9.252;2023-02-03T14:49:50;10.00;99.90
1123;DHT22;548;48.778;9.252;2023-02-03T14:52:43;10.00;99.90
1123;DHT22;548;48.778;9.252;2023-02-03T14:55:25;10.00;99.90
1123;DHT22;548;48.778;9.252;2023-02-03T14:57:58;10.00;99.90
1123;DHT22;548;48.778;9.252;2023-02-03T15:00:29;10.00;99.90
1123;DHT22;548;48.778;9.252;2023-02-03T15:03:17;9.80;99.90
1123;DHT22;548;48.778;9.252;2023-02-03T15:05:48;9.90;99.90
1123;DHT22;548;48.778;9.252;2023-02-03T15:08:42;9.90;99.90
1123;DHT22;548;48.778;9.252;2023-02-03T15:11:24;10.00;99.90
1123;DHT22;548;48.778;9.252;2023-02-03T15:14:12;9.90;99.90
1123;DHT22;548;48.778;9.252;2023-02-03T15:16:41;9.90;99.90
1123;DHT22;548;48.778;9.252;2023-02-03T15:19:15;9.80;99.90
1123;DHT22;548;48.778;9.252;2023-02-03T15:21:43;9.70;99.90
1123;DHT22;548;48.778;9.252;2023-02-03T15:24:14;9.70;99.90
1123;DHT22;548;48.778;9.252;2023-02-03T15:26:47;9.70;99.90
1123;DHT22;548;48.778;9.252;2023-02-03T15:29:20;9.80;99.90
1123;DHT22;548;48.778;9.252;2023-02-03T15:31:52;9.70;99.90
1123;DHT22;548;48.778;9.252;2023-02-03T15:34:23;9.70;99.90
1123;DHT22;548;48.778;9.252;2023-02-03T15:36:55;9.60;99.90
1123;DHT22;548;48.778;9.252;2023-02-03T15:39:34;9.60;99.90
1123;DHT22;548;48.778;9.252;2023-02-03T15:42:06;9.60;99.90
1123;DHT22;548;48.778;9.252;2023-02-03T15:44:38;9.60;99.90
1123;DHT22;548;48.778;9.252;2023-02-03T15:47:19;9.60;99.90
1123;DHT22;548;48.778;9.252;2023-02-03T15:49:58;9.70;99.90
1123;DHT22;548;48.778;9.252;2023-02-03T15:52:26;9.60;99.90
1123;DHT22;548;48.778;9.252;2023-02-03T15:55:02;9.60;99.90
1123;DHT22;548;48.778;9.252;2023-02-03T15:57:32;9.50;99.90
1123;DHT22;548;48.778;9.252;2023-02-03T16:00:09;9.50;99.90
1123;DHT22;548;48.778;9.252;2023-02-03T16:02:41;9.40;99.90
1123;DHT22;548;48.778;9.252;2023-02-03T16:05:20;9.40;99.90
1123;DHT22;548;48.778;9.252;2023-02-03T16:07:49;9.50;99.90
1123;DHT22;548;48.778;9.252;2023-02-03T16:10:26;9.30;99.90
1123;DHT22;548;48.778;9.252;2023-02-03T16:13:13;9.30;99.90
1123;DHT22;548;48.778;9.252;2023-02-03T16:15:43;9.30;99.90
1123;DHT22;548;48.778;9.252;2023-02-03T16:18:15;9.40;99.90
1123;DHT22;548;48.778;9.252;2023-02-03T16:20:49;9.30;99.90
1123;DHT22;548;48.778;9.252;2023-02-03T16:23:18;9.30;99.90
1123;DHT22;548;48.778;9.252;2023-02-03T16:28:42;9.20;99.90
1123;DHT22;548;48.778;9.252;2023-02-03T16:31:26;9.30;99.90
1123;DHT22;548;48.778;9.252;2023-02-03T16:34:13;9.30;99.90
1123;DHT22;548;48.778;9.252;2023-02-03T16:36:58;9.20;99.90
1123;DHT22;548;48.778;9.252;2023-02-03T16:39:42;9.20;99.90
1123;DHT22;548;48.778;9.252;2023-02-03T16:42:36;9.20;99.90
1123;DHT22;548;48.778;9.252;2023-02-03T16:45:22;9.20;99.90
1123;DHT22;548;48.778;9.252;2023-02-03T16:48:08;9.30;99.90
1123;DHT22;548;48.778;9.252;2023-02-03T16:50:53;9.20;99.90
1123;DHT22;548;48.778;9.252;2023-02-03T16:53:22;9.10;99.90
1123;DHT22;548;48.778;9.252;2023-02-03T16:55:50;9.10;99.90
1123;DHT22;548;48.778;9.252;2023-02-03T16:58:18;9.20;99.90
1123;DHT22;548;48.778;9.252;2023-02-03T17:00:48;9.20;99.90
1123;DHT22;548;48.778;9.252;2023-02-03T17:03:18;9.20;99.90
1123;DHT22;548;48.778;9.252;2023-02-03T17:05:46;9.20;99.90
1123;DHT22;548;48.778;9.252;2023-02-03T17:08:14;9.20;99.90
1123;DHT22;548;48.778;9.252;2023-02-03T17:10:42;9.20;99.90
1123;DHT22;548;48.778;9.252;2023-02-03T17:13:09;9.20;99.90
1123;DHT22;548;48.778;9.252;2023-02-03T17:15:39;9.20;99.90
1123;DHT22;548;48.778;9.252;2023-02-03T17:18:07;9.20;99.90
1123;DHT22;548;48.778;9.252;2023-02-03T17:20:34;9.10;99.90
1123;DHT22;548;48.778;9.252;2023-02-03T17:23:01;9.10;99.90
1123;DHT22;548;48.778;9.252;2023-02-03T17:25:30;9.20;99.90
1123;DHT22;548;48.778;9.252;2023-02-03T17:27:57;9.10;99.90
1123;DHT22;548;48.778;9.252;2023-02-03T17:30:24;9.20;99.90
1123;DHT22;548;48.778;9.252;2023-02-03T17:32:50;9.20;99.90
1123;DHT22;548;48.778;9.252;2023-02-03T17:35:18;9.20;99.90
1123;DHT22;548;48.778;9.252;2023-02-03T17:37:45;9.30;99.90
1123;DHT22;548;48.778;9.252;2023-02-03T17:40:12;9.20;99.90
1123;DHT22;548;48.778;9.252;2023-02-03T17:42:38;9.20;99.90
1123;DHT22;548;48.778;9.252;2023-02-03T17:45:05;9.30;99.90
1123;DHT22;548;48.778;9.252;2023-02-03T17:47:32;9.30;99.90
1123;DHT22;548;48.778;9.252;2023-02-03T17:49:59;9.30;99.90
1123;DHT22;548;48.778;9.252;2023-02-03T17:52:27;9.30;99.90
1123;DHT22;548;48.778;9.252;2023-02-03T17:54:54;9.30;99.90
1123;DHT22;548;48.778;9.252;2023-02-03T17:57:20;9.40;99.90
